KOEO/OEO METAR and TAF weather

Enter ICAO airport designator
Station Type Date Time Source
KOEO METAR 2021/06/24 06:35 UTC NOAA

KOEO 240635Z AUTO 17009KT 10SM CLR 25/20 A2971 RMK AO2 T02500198


Station Type Date Time Source
KOEO Decoded METAR 2021/06/24 06:35 UTC NOAA

Osceola, L O Simenstad Municipal Airport, WI, United States (KOEO) 45-18-31N 092-41-24W
Jun 24, 2021 - 02:35 AM EDT / 2021.06.24 0635 UTC
Wind: from the S (170 degrees) at 10 MPH (9 KT):0
Visibility: 10 mile(s):0
Sky conditions: clear
Temperature: 77.0 F (25.0 C)
Dew Point: 67.6 F (19.8 C)
Relative Humidity: 72%
Pressure (altimeter): 29.71 in. Hg (1006 hPa)
ob: KOEO 240635Z AUTO 17009KT 10SM CLR 25/20 A2971 RMK AO2 T02500198
cycle: 6

Station Type Date Time Source
KOEO TAF UTC NOAA

Error!

Example: see airport list